Time;durP1;ratioP1;P1;durP2;ratioP2;P2;SDS_P1;SDS_P2;PMS_P1;PMS_P2;Temp;Humidity;BMP_temperature;BMP_pressure;BME280_temperature;BME280_humidity;BME280_pressure;Samples;Min_cycle;Max_cycle;Signal;HPM_P1;HPM_P2
2022/07/21 00:00:44;;;;;;;6.65;4.50;;;28.60;49.20;;;;;;5064730;28;20182;-80
2022/07/21 00:03:10;;;;;;;4.85;4.00;;;28.50;49.20;;;;;;5069399;28;20041;-81
2022/07/21 00:05:36;;;;;;;5.38;4.43;;;28.50;49.20;;;;;;5076841;28;20027;-80
2022/07/21 00:08:02;;;;;;;5.05;4.05;;;28.40;49.20;;;;;;5070146;28;20155;-80
2022/07/21 00:10:28;;;;;;;4.97;3.92;;;28.40;49.30;;;;;;5072435;28;20081;-83
2022/07/21 00:12:54;;;;;;;4.82;3.90;;;28.40;49.50;;;;;;5050631;28;20119;-80
2022/07/21 00:15:25;;;;;;;5.50;4.07;;;28.30;49.50;;;;;;5070416;28;20051;-80
2022/07/21 00:17:51;;;;;;;5.50;3.78;;;28.30;49.60;;;;;;5069711;28;20081;-81
2022/07/21 00:20:17;;;;;;;5.10;3.90;;;28.20;49.50;;;;;;5068847;28;20032;-80
2022/07/21 00:22:44;;;;;;;5.97;3.88;;;28.20;49.60;;;;;;5052342;28;20119;-80
2022/07/21 00:25:12;;;;;;;5.78;3.88;;;28.20;49.70;;;;;;5071829;28;20036;-80
2022/07/21 00:27:38;;;;;;;5.13;3.70;;;28.20;49.80;;;;;;5049572;28;20119;-80
2022/07/21 00:30:05;;;;;;;4.95;3.90;;;28.10;49.70;;;;;;5067522;28;20104;-81
2022/07/21 00:32:31;;;;;;;4.80;3.72;;;28.10;49.80;;;;;;5079750;28;20510;-80
2022/07/21 00:34:56;;;;;;;4.70;3.78;;;28.00;49.80;;;;;;5051197;28;20119;-81
2022/07/21 00:37:23;;;;;;;4.78;3.75;;;28.00;49.80;;;;;;5047156;28;20017;-80
2022/07/21 00:39:53;;;;;;;5.07;3.75;;;28.00;49.90;;;;;;5074073;28;20487;-80
2022/07/21 00:42:30;;;;;;;4.55;3.88;;;27.90;50.00;;;;;;5070544;28;20536;-80
2022/07/21 00:44:57;;;;;;;4.75;3.67;;;27.90;50.20;;;;;;5069496;28;20111;-80
2022/07/21 00:47:25;;;;;;;4.95;3.83;;;27.90;50.10;;;;;;5065920;28;20028;-80
2022/07/21 00:49:52;;;;;;;4.65;3.60;;;27.80;50.10;;;;;;5071078;28;20028;-81
2022/07/21 00:52:18;;;;;;;5.32;3.97;;;27.80;50.20;;;;;;5071780;28;20058;-80
2022/07/21 00:54:45;;;;;;;5.28;3.88;;;27.70;50.10;;;;;;5069551;28;20476;-81
2022/07/21 00:57:12;;;;;;;5.03;3.97;;;27.70;50.20;;;;;;5054015;28;20036;-79
2022/07/21 00:59:38;;;;;;;4.72;4.07;;;27.70;50.30;;;;;;5069395;28;20047;-80
2022/07/21 01:02:04;;;;;;;4.97;3.92;;;27.70;50.30;;;;;;5062205;28;20056;-81
2022/07/21 01:04:30;;;;;;;4.38;3.63;;;27.60;50.40;;;;;;5063370;28;20052;-82
2022/07/21 01:06:56;;;;;;;4.50;3.97;;;27.60;50.40;;;;;;5053072;28;20029;-80
2022/07/21 01:09:23;;;;;;;5.20;4.30;;;27.60;50.50;;;;;;5069191;28;20465;-80
2022/07/21 01:11:49;;;;;;;4.95;3.88;;;27.50;50.50;;;;;;5064064;28;20090;-80
2022/07/21 01:14:15;;;;;;;4.63;3.75;;;27.50;50.50;;;;;;5069848;28;20473;-80
2022/07/21 01:16:43;;;;;;;4.82;3.97;;;27.50;50.60;;;;;;5073147;28;20489;-80
2022/07/21 01:19:09;;;;;;;4.57;3.40;;;27.50;50.70;;;;;;5057846;28;20021;-80
2022/07/21 01:21:38;;;;;;;4.85;3.72;;;27.40;50.70;;;;;;5062144;28;20116;-80
2022/07/21 01:24:05;;;;;;;4.80;3.78;;;27.40;50.80;;;;;;5065752;28;20087;-80
2022/07/21 01:26:49;;;;;;;4.70;3.67;;;27.40;50.80;;;;;;5056400;28;20480;-81
2022/07/21 01:29:17;;;;;;;4.72;3.67;;;27.30;50.80;;;;;;5067818;28;20024;-80
2022/07/21 01:31:46;;;;;;;4.65;3.28;;;27.30;50.80;;;;;;5067095;28;20048;-80
2022/07/21 01:34:12;;;;;;;4.10;3.45;;;27.30;50.80;;;;;;5070769;28;20517;-81
2022/07/21 01:36:38;;;;;;;4.35;3.58;;;27.20;50.80;;;;;;5071023;28;20380;-81
2022/07/21 01:41:49;;;;;;;4.53;3.80;;;27.10;50.90;;;;;;5068694;28;20037;-80
2022/07/21 01:44:15;;;;;;;4.70;3.78;;;27.10;50.90;;;;;;5055734;28;20063;-81
2022/07/21 01:46:46;;;;;;;4.50;3.80;;;27.10;51.00;;;;;;5068419;28;20056;-80
2022/07/21 01:49:15;;;;;;;4.30;3.38;;;27.00;51.10;;;;;;5072219;28;20024;-80
2022/07/21 01:51:41;;;;;;;4.60;3.70;;;27.00;51.10;;;;;;5070952;28;20025;-82
2022/07/21 01:54:08;;;;;;;4.53;3.38;;;27.00;51.10;;;;;;5070767;28;20322;-80
2022/07/21 01:56:35;;;;;;;4.57;3.42;;;27.00;51.20;;;;;;5070978;28;20032;-82
2022/07/21 01:59:02;;;;;;;5.68;3.75;;;27.00;51.20;;;;;;5070866;28;20090;-80
2022/07/21 02:01:29;;;;;;;4.50;3.65;;;26.90;51.20;;;;;;5065845;28;20056;-81
2022/07/21 02:03:58;;;;;;;5.28;3.92;;;26.90;51.20;;;;;;5059672;28;20036;-80
2022/07/21 02:06:24;;;;;;;4.47;3.58;;;26.80;51.30;;;;;;5057942;28;20476;-81
2022/07/21 02:08:50;;;;;;;4.05;3.20;;;26.80;51.30;;;;;;5076868;28;20094;-80
2022/07/21 02:11:17;;;;;;;3.63;3.08;;;26.80;51.30;;;;;;5079277;28;20464;-80
2022/07/21 02:13:44;;;;;;;4.57;3.75;;;26.80;51.50;;;;;;5058410;28;20040;-80
2022/07/21 02:16:10;;;;;;;4.90;3.80;;;26.70;51.40;;;;;;5075577;28;20078;-83
2022/07/21 02:18:36;;;;;;;4.80;3.80;;;26.70;51.50;;;;;;5076251;28;20055;-81
2022/07/21 02:21:02;;;;;;;4.80;3.75;;;26.70;51.50;;;;;;5058927;28;20031;-80
2022/07/21 02:23:28;;;;;;;4.60;3.70;;;26.60;51.50;;;;;;5038733;28;20045;-80
2022/07/21 02:25:54;;;;;;;4.45;3.58;;;26.60;51.50;;;;;;5076734;28;20119;-80
2022/07/21 02:28:20;;;;;;;4.40;3.60;;;26.60;51.60;;;;;;5058188;28;20032;-80
2022/07/21 02:30:46;;;;;;;4.80;4.00;;;26.50;51.70;;;;;;5058704;28;20039;-80
2022/07/21 02:33:12;;;;;;;5.82;3.97;;;26.50;51.70;;;;;;5072301;28;20029;-81
2022/07/21 02:35:40;;;;;;;4.47;3.40;;;26.50;51.80;;;;;;5059245;28;20046;-80
2022/07/21 02:38:07;;;;;;;4.85;3.85;;;26.50;51.80;;;;;;5058669;28;20024;-81
2022/07/21 02:40:33;;;;;;;4.70;3.70;;;26.40;51.80;;;;;;5070106;28;20033;-80
2022/07/21 02:42:59;;;;;;;4.53;3.70;;;26.30;51.80;;;;;;5054316;28;20111;-80
2022/07/21 02:45:25;;;;;;;4.93;4.15;;;26.40;51.90;;;;;;5057279;28;20119;-80
2022/07/21 02:47:53;;;;;;;4.72;3.83;;;26.30;51.90;;;;;;5058407;28;20024;-80
2022/07/21 02:50:20;;;;;;;4.80;4.00;;;26.30;52.00;;;;;;5058740;28;20103;-80
2022/07/21 02:52:46;;;;;;;5.20;4.18;;;26.20;52.00;;;;;;5046660;28;20229;-81
2022/07/21 02:55:13;;;;;;;4.88;3.80;;;26.20;52.00;;;;;;5054454;28;20028;-81
2022/07/21 02:57:38;;;;;;;4.60;3.80;;;26.20;52.10;;;;;;5072193;28;20056;-80
2022/07/21 03:00:07;;;;;;;4.60;3.53;;;26.20;52.20;;;;;;5056820;28;20131;-80
2022/07/21 03:02:33;;;;;;;4.85;3.97;;;26.20;52.20;;;;;;5075279;28;20082;-81
2022/07/21 03:04:59;;;;;;;4.75;3.80;;;26.10;52.10;;;;;;5069825;28;20108;-80
2022/07/21 03:07:25;;;;;;;5.35;4.20;;;26.00;52.10;;;;;;5066909;28;20123;-81
2022/07/21 03:09:51;;;;;;;5.80;3.92;;;26.10;52.30;;;;;;5034817;28;20527;-81
2022/07/21 03:12:16;;;;;;;4.95;4.15;;;26.00;52.10;;;;;;5056367;28;20384;-81
2022/07/21 03:14:42;;;;;;;4.95;3.78;;;26.00;52.10;;;;;;5066965;28;20556;-81
2022/07/21 03:17:08;;;;;;;5.32;4.10;;;26.00;52.80;;;;;;5066432;28;20031;-80
2022/07/21 03:19:33;;;;;;;4.70;3.63;;;25.90;52.10;;;;;;5053413;28;20094;-80
2022/07/21 03:21:59;;;;;;;4.68;3.70;;;25.90;52.20;;;;;;5036938;28;20041;-80
2022/07/21 03:24:25;;;;;;;5.35;4.07;;;25.90;52.30;;;;;;5068283;28;20060;-80
2022/07/21 03:26:50;;;;;;;4.90;3.80;;;25.90;52.30;;;;;;5069826;28;20028;-80
2022/07/21 03:29:16;;;;;;;5.45;4.15;;;25.90;52.30;;;;;;5070797;28;20116;-82
2022/07/21 03:31:42;;;;;;;5.40;4.03;;;25.90;52.30;;;;;;5069204;28;20040;-80
2022/07/21 03:34:08;;;;;;;5.07;4.03;;;25.80;52.30;;;;;;5070913;28;20038;-80
2022/07/21 03:36:34;;;;;;;5.05;3.80;;;25.80;52.30;;;;;;5075387;28;20055;-80
2022/07/21 03:38:59;;;;;;;4.93;4.22;;;25.80;52.40;;;;;;5062159;28;20028;-80
2022/07/21 03:41:25;;;;;;;5.25;3.78;;;25.80;52.50;;;;;;5079902;28;20032;-81
2022/07/21 03:43:51;;;;;;;4.53;3.85;;;25.70;52.40;;;;;;5085768;28;20044;-81
2022/07/21 03:46:16;;;;;;;5.20;3.75;;;25.80;52.60;;;;;;5066727;28;20029;-81
2022/07/21 03:48:42;;;;;;;4.72;3.92;;;25.70;52.50;;;;;;5064273;28;20024;-80
2022/07/21 03:51:09;;;;;;;4.72;3.95;;;25.70;52.60;;;;;;5067995;28;20112;-81
2022/07/21 03:53:35;;;;;;;5.00;4.18;;;25.60;52.60;;;;;;5061712;28;20044;-81
2022/07/21 03:56:01;;;;;;;5.03;4.25;;;25.70;52.70;;;;;;5051274;28;20032;-80
2022/07/21 03:58:26;;;;;;;4.82;3.90;;;25.60;53.30;;;;;;5070410;28;20507;-80
2022/07/21 04:00:52;;;;;;;5.00;3.97;;;25.60;52.70;;;;;;5054013;28;20480;-80
2022/07/21 04:03:18;;;;;;;4.97;3.92;;;25.60;52.70;;;;;;5053236;28;20036;-80
2022/07/21 04:05:43;;;;;;;5.68;3.92;;;25.60;52.80;;;;;;5069112;28;20175;-80
2022/07/21 04:08:11;;;;;;;4.68;3.67;;;25.50;52.70;;;;;;5053946;28;20029;-81
2022/07/21 04:10:38;;;;;;;5.30;3.78;;;25.50;52.80;;;;;;5063270;28;20048;-81
2022/07/21 04:13:07;;;;;;;5.05;4.05;;;25.50;52.80;;;;;;5063474;28;20080;-80
2022/07/21 04:15:34;;;;;;;6.68;4.50;;;25.50;52.90;;;;;;5067234;28;20036;-81
2022/07/21 04:17:59;;;;;;;5.55;4.28;;;25.50;53.00;;;;;;5070789;28;20491;-81
2022/07/21 04:20:26;;;;;;;5.10;4.25;;;25.50;53.00;;;;;;5068082;28;20057;-80
2022/07/21 04:22:53;;;;;;;5.78;4.55;;;25.40;52.90;;;;;;5071373;28;20048;-80
2022/07/21 04:25:19;;;;;;;5.35;3.92;;;25.40;53.00;;;;;;5069368;28;20105;-80
2022/07/21 04:27:46;;;;;;;5.20;4.15;;;25.40;53.00;;;;;;5052720;28;20095;-81
2022/07/21 04:30:15;;;;;;;5.25;4.15;;;25.40;53.10;;;;;;5061708;28;20171;-80
2022/07/21 04:32:41;;;;;;;5.28;4.30;;;25.40;53.10;;;;;;5070795;28;20036;-79
2022/07/21 04:35:08;;;;;;;5.28;4.10;;;25.30;53.00;;;;;;5069698;28;20036;-79
2022/07/21 04:37:34;;;;;;;5.03;3.80;;;25.30;53.10;;;;;;5070392;28;20428;-79
2022/07/21 04:40:01;;;;;;;5.30;4.32;;;25.30;53.10;;;;;;5068813;28;20088;-79
2022/07/21 04:42:26;;;;;;;5.07;4.03;;;25.30;53.10;;;;;;5061975;28;20060;-78
2022/07/21 04:44:52;;;;;;;5.15;4.28;;;25.30;53.30;;;;;;5053280;28;20056;-79
2022/07/21 04:47:18;;;;;;;5.57;4.38;;;25.30;53.30;;;;;;5074771;28;20413;-79
2022/07/21 04:49:44;;;;;;;4.97;4.40;;;25.30;53.30;;;;;;5067141;28;20373;-79
2022/07/21 04:52:09;;;;;;;4.97;4.22;;;25.20;53.30;;;;;;5053318;28;20029;-79
2022/07/21 04:54:36;;;;;;;5.90;4.30;;;25.20;53.40;;;;;;5053727;28;20424;-79
2022/07/21 04:57:03;;;;;;;5.72;4.47;;;25.20;53.40;;;;;;5050802;28;20044;-79
2022/07/21 04:59:30;;;;;;;5.35;4.63;;;25.20;53.40;;;;;;5027951;28;20029;-79
2022/07/21 05:01:56;;;;;;;5.30;4.25;;;25.20;53.40;;;;;;5068511;28;20037;-81
2022/07/21 05:04:22;;;;;;;6.10;5.03;;;25.20;53.50;;;;;;5069605;28;20111;-81
2022/07/21 05:06:48;;;;;;;5.93;4.65;;;25.10;53.50;;;;;;5083637;28;20104;-81
2022/07/21 05:09:14;;;;;;;5.75;4.57;;;25.10;53.50;;;;;;5065687;28;20054;-79
2022/07/21 05:11:40;;;;;;;5.78;4.60;;;25.10;53.50;;;;;;5053346;28;20029;-79
2022/07/21 05:14:05;;;;;;;5.90;4.68;;;25.10;53.60;;;;;;5052577;28;20025;-80
2022/07/21 05:16:31;;;;;;;6.15;4.97;;;25.10;53.60;;;;;;5054366;28;20404;-82
2022/07/21 05:18:57;;;;;;;6.28;5.00;;;25.00;53.60;;;;;;5083926;28;20102;-81
2022/07/21 05:21:23;;;;;;;6.47;4.78;;;25.00;53.60;;;;;;5069661;28;20036;-81
2022/07/21 05:23:48;;;;;;;6.10;4.90;;;25.00;53.60;;;;;;5050027;28;20091;-82
2022/07/21 05:26:14;;;;;;;6.07;4.88;;;25.00;53.70;;;;;;5063693;28;20033;-80
2022/07/21 05:28:40;;;;;;;6.57;5.00;;;25.00;53.70;;;;;;5062230;28;20025;-80
2022/07/21 05:31:08;;;;;;;7.13;5.05;;;25.00;53.80;;;;;;5069903;28;20078;-79
2022/07/21 05:33:35;;;;;;;5.90;4.93;;;25.00;53.80;;;;;;5072040;28;20170;-81
2022/07/21 05:36:00;;;;;;;6.15;4.93;;;25.00;53.80;;;;;;5053124;28;20162;-80
2022/07/21 05:38:26;;;;;;;5.82;4.82;;;25.00;53.90;;;;;;5052889;28;20123;-79
2022/07/21 05:40:52;;;;;;;6.68;5.38;;;25.00;53.90;;;;;;5069256;28;20037;-79
2022/07/21 05:43:18;;;;;;;6.75;5.07;;;24.90;53.90;;;;;;5053283;28;20073;-80
2022/07/21 05:45:43;;;;;;;6.63;5.47;;;24.90;54.00;;;;;;5048722;28;20043;-80
2022/07/21 05:48:09;;;;;;;8.90;5.70;;;24.90;54.00;;;;;;5068732;28;20035;-80
2022/07/21 05:50:35;;;;;;;6.15;5.18;;;24.90;54.00;;;;;;5052038;28;20033;-80
2022/07/21 05:53:00;;;;;;;6.15;5.22;;;24.80;54.00;;;;;;5069198;28;20036;-80
2022/07/21 05:55:26;;;;;;;6.50;5.75;;;24.80;54.10;;;;;;5061045;28;20060;-80
2022/07/21 05:57:53;;;;;;;6.72;5.70;;;24.80;54.10;;;;;;5068906;28;20507;-81
2022/07/21 06:00:19;;;;;;;5.65;4.80;;;24.80;54.20;;;;;;5063450;28;20064;-80
2022/07/21 06:02:45;;;;;;;7.05;6.20;;;24.80;54.20;;;;;;5088319;28;20051;-80
2022/07/21 06:05:11;;;;;;;6.55;5.70;;;24.80;54.20;;;;;;5068587;28;20487;-80
2022/07/21 06:07:38;;;;;;;6.43;5.60;;;24.80;54.30;;;;;;5071214;28;20025;-80
2022/07/21 06:10:04;;;;;;;6.82;5.80;;;24.70;54.20;;;;;;5071440;28;20024;-80
2022/07/21 06:12:30;;;;;;;7.80;6.00;;;24.80;54.30;;;;;;5072798;28;20036;-80
2022/07/21 06:14:55;;;;;;;7.47;6.15;;;24.80;54.40;;;;;;5056302;28;20099;-79
2022/07/21 06:17:22;;;;;;;7.22;6.00;;;24.80;54.40;;;;;;5071898;28;20443;-80
2022/07/21 06:19:48;;;;;;;6.65;5.63;;;24.70;54.40;;;;;;5055635;28;20025;-80
2022/07/21 06:22:14;;;;;;;6.90;5.93;;;24.70;54.40;;;;;;5071049;28;20040;-80
2022/07/21 06:24:40;;;;;;;6.68;5.70;;;24.70;54.40;;;;;;5065454;28;20548;-81
2022/07/21 06:27:05;;;;;;;7.32;6.00;;;24.70;54.40;;;;;;5072234;28;20033;-79
2022/07/21 06:29:31;;;;;;;7.30;6.38;;;24.70;54.50;;;;;;5063153;28;20032;-81
2022/07/21 06:31:57;;;;;;;6.85;6.07;;;24.70;54.50;;;;;;5051551;28;20450;-81
2022/07/21 06:34:22;;;;;;;6.85;5.95;;;24.70;54.50;;;;;;5071705;28;20078;-81
2022/07/21 06:36:48;;;;;;;6.50;5.65;;;24.70;54.60;;;;;;5040277;28;20120;-80
2022/07/21 06:39:14;;;;;;;6.82;5.72;;;24.60;54.50;;;;;;5059233;28;20032;-81
2022/07/21 06:41:40;;;;;;;6.70;5.80;;;24.60;54.60;;;;;;5071353;28;20198;-81
2022/07/21 06:44:12;;;;;;;6.78;5.60;;;24.60;54.60;;;;;;5071284;28;20498;-81
2022/07/21 06:46:37;;;;;;;6.50;5.45;;;24.60;54.70;;;;;;5069274;28;20056;-81
2022/07/21 06:49:03;;;;;;;6.43;5.47;;;24.60;54.70;;;;;;5072025;28;20032;-81
2022/07/21 06:51:29;;;;;;;6.82;5.30;;;24.60;54.70;;;;;;5071867;28;20496;-81
2022/07/21 06:53:55;;;;;;;6.10;5.35;;;24.60;54.70;;;;;;5070504;28;20020;-80
2022/07/21 06:56:21;;;;;;;5.75;5.15;;;24.60;54.80;;;;;;5071811;28;20058;-80
2022/07/21 06:58:46;;;;;;;7.32;6.00;;;24.60;54.80;;;;;;5070949;28;20373;-81
2022/07/21 07:01:14;;;;;;;6.85;5.43;;;24.60;54.90;;;;;;5071778;28;20048;-80
2022/07/21 07:03:40;;;;;;;6.30;5.30;;;24.60;54.90;;;;;;5070541;28;20357;-81
2022/07/21 07:06:06;;;;;;;6.95;5.88;;;24.60;54.90;;;;;;5072166;28;20021;-81
2022/07/21 07:08:32;;;;;;;7.03;5.70;;;24.60;55.00;;;;;;5070312;28;20524;-81
2022/07/21 07:10:58;;;;;;;6.68;5.60;;;24.60;55.00;;;;;;5089169;28;20043;-81
2022/07/21 07:13:24;;;;;;;7.45;6.38;;;24.60;55.10;;;;;;5052874;28;20032;-81
2022/07/21 07:15:50;;;;;;;7.47;5.60;;;24.60;55.10;;;;;;5063319;28;20025;-81
2022/07/21 07:18:16;;;;;;;7.25;6.10;;;24.60;55.10;;;;;;5049991;28;20393;-81
2022/07/21 07:20:41;;;;;;;6.45;5.65;;;24.60;55.10;;;;;;5085322;28;20044;-81
2022/07/21 07:23:07;;;;;;;6.82;5.45;;;24.60;55.20;;;;;;5064336;28;20441;-80
2022/07/21 07:25:33;;;;;;;7.20;5.78;;;24.60;55.20;;;;;;5062711;28;20028;-80
2022/07/21 07:28:00;;;;;;;7.18;6.07;;;24.60;55.20;;;;;;5054503;28;20039;-81
2022/07/21 07:30:26;;;;;;;7.28;5.68;;;24.60;55.20;;;;;;5071563;28;20116;-81
2022/07/21 07:32:52;;;;;;;6.03;5.03;;;24.60;55.20;;;;;;5065125;28;20123;-81
2022/07/21 07:35:17;;;;;;;7.07;5.90;;;24.60;55.20;;;;;;5069636;28;20056;-81
2022/07/21 07:37:46;;;;;;;6.63;5.57;;;24.60;55.20;;;;;;5067240;28;20025;-81
2022/07/21 07:40:15;;;;;;;6.78;5.32;;;24.60;55.30;;;;;;5070115;28;20038;-82
2022/07/21 07:42:41;;;;;;;7.40;5.68;;;24.60;55.30;;;;;;5067502;28;20063;-81
2022/07/21 07:45:08;;;;;;;6.28;5.28;;;24.60;55.30;;;;;;5070401;28;20024;-81
2022/07/21 07:47:34;;;;;;;6.78;6.00;;;24.60;55.30;;;;;;5064057;28;20087;-80
2022/07/21 07:50:00;;;;;;;7.20;5.45;;;24.70;55.30;;;;;;5063470;28;20554;-80
2022/07/21 07:52:26;;;;;;;7.43;5.90;;;24.70;55.30;;;;;;5042198;28;20041;-81
2022/07/21 07:54:52;;;;;;;7.10;5.95;;;24.60;55.30;;;;;;5070741;28;20037;-80
2022/07/21 07:57:17;;;;;;;7.00;5.75;;;24.70;55.30;;;;;;5072206;28;20041;-82
2022/07/21 07:59:43;;;;;;;7.25;5.53;;;24.70;55.40;;;;;;5071861;28;20120;-83
2022/07/21 08:02:09;;;;;;;6.95;5.88;;;24.60;55.30;;;;;;5054792;28;20048;-83
2022/07/21 08:04:35;;;;;;;7.53;5.80;;;24.70;55.40;;;;;;5038290;28;20028;-82
2022/07/21 08:07:02;;;;;;;6.32;5.35;;;24.60;55.30;;;;;;5070736;28;20033;-81
2022/07/21 08:09:28;;;;;;;6.82;5.50;;;24.70;55.40;;;;;;5071149;28;20205;-82
2022/07/21 08:11:54;;;;;;;6.55;4.82;;;24.70;55.40;;;;;;5069725;28;20115;-78
2022/07/21 08:14:19;;;;;;;8.68;6.05;;;24.70;55.40;;;;;;5054858;28;20036;-76
2022/07/21 08:16:45;;;;;;;6.93;5.60;;;24.70;55.40;;;;;;5059113;28;20032;-78
2022/07/21 08:19:11;;;;;;;7.13;5.40;;;24.70;55.40;;;;;;5053987;28;20066;-77
2022/07/21 08:21:37;;;;;;;7.25;5.93;;;24.70;55.30;;;;;;5071938;28;20021;-77
2022/07/21 08:24:04;;;;;;;7.57;6.00;;;24.70;55.40;;;;;;5070204;28;20051;-80
2022/07/21 08:26:30;;;;;;;8.90;5.60;;;24.70;55.40;;;;;;5053617;28;20028;-81
2022/07/21 08:28:57;;;;;;;6.88;5.75;;;24.70;55.30;;;;;;5071041;28;20021;-80
2022/07/21 08:31:23;;;;;;;6.65;5.28;;;24.70;55.40;;;;;;5070605;28;20052;-82
2022/07/21 08:33:50;;;;;;;6.45;5.78;;;24.70;55.30;;;;;;5070503;28;20037;-80
2022/07/21 08:36:16;;;;;;;6.57;5.70;;;24.80;55.40;;;;;;5069755;28;20032;-82
2022/07/21 08:38:42;;;;;;;6.78;5.28;;;24.80;55.40;;;;;;5065079;28;20028;-82
2022/07/21 08:41:08;;;;;;;5.95;4.97;;;24.80;55.40;;;;;;5054263;28;20017;-78
2022/07/21 08:43:35;;;;;;;6.57;5.18;;;24.80;55.40;;;;;;5053755;28;20037;-80
2022/07/21 08:46:01;;;;;;;7.13;5.20;;;24.80;55.40;;;;;;5070745;28;20028;-79
2022/07/21 08:48:29;;;;;;;6.22;5.22;;;24.80;55.40;;;;;;5070368;28;20024;-78
2022/07/21 08:50:56;;;;;;;6.03;5.22;;;24.80;55.40;;;;;;5087009;28;20537;-82
2022/07/21 08:53:22;;;;;;;6.82;5.32;;;24.80;55.40;;;;;;5053007;28;20580;-82
2022/07/21 08:55:48;;;;;;;6.88;5.43;;;24.80;55.30;;;;;;5071632;28;20469;-80
2022/07/21 08:58:14;;;;;;;5.80;4.80;;;24.90;55.40;;;;;;5069657;28;20127;-81
2022/07/21 09:00:46;;;;;;;6.22;4.85;;;24.90;55.40;;;;;;5052563;28;20048;-79
2022/07/21 09:03:18;;;;;;;6.38;5.10;;;24.90;55.30;;;;;;5064433;28;20048;-79
2022/07/21 09:06:01;;;;;;;5.88;4.78;;;24.90;55.30;;;;;;5066227;28;20074;-79
2022/07/21 09:08:41;;;;;;;5.93;4.50;;;24.90;55.40;;;;;;5070600;28;20387;-80
2022/07/21 09:11:13;;;;;;;6.65;4.68;;;24.90;55.40;;;;;;5082377;28;20028;-80
2022/07/21 09:13:40;;;;;;;6.25;4.78;;;24.90;55.20;;;;;;5068230;28;20028;-78
2022/07/21 09:16:06;;;;;;;6.57;4.90;;;24.90;55.20;;;;;;5069004;28;20024;-80
2022/07/21 09:18:32;;;;;;;6.47;4.88;;;24.90;55.20;;;;;;5069588;28;20032;-80
2022/07/21 09:21:00;;;;;;;6.13;5.50;;;24.90;55.10;;;;;;5068369;28;20025;-81
2022/07/21 09:23:26;;;;;;;6.90;5.18;;;25.00;55.20;;;;;;5068513;28;20037;-81
2022/07/21 09:25:58;;;;;;;6.43;5.07;;;24.90;55.10;;;;;;5068707;28;20115;-80
2022/07/21 09:28:27;;;;;;;6.80;5.60;;;24.90;55.20;;;;;;5069117;28;20032;-82
2022/07/21 09:31:04;;;;;;;5.90;4.85;;;25.00;55.30;;;;;;5069239;28;20167;-81
2022/07/21 09:33:42;;;;;;;6.40;4.50;;;24.90;55.10;;;;;;5068291;28;20442;-81
2022/07/21 09:36:14;;;;;;;6.32;4.57;;;24.90;55.20;;;;;;5063827;28;20021;-82
2022/07/21 09:38:49;;;;;;;6.43;5.00;;;24.90;55.10;;;;;;5066671;28;20024;-80
2022/07/21 09:41:20;;;;;;;5.93;4.32;;;24.90;55.10;;;;;;5072771;28;20035;-81
2022/07/21 09:43:50;;;;;;;5.75;4.50;;;24.90;55.10;;;;;;5069258;28;20028;-81
2022/07/21 09:46:19;;;;;;;4.75;3.88;;;24.90;55.10;;;;;;5073218;28;20031;-79
2022/07/21 09:48:50;;;;;;;6.25;4.30;;;24.90;55.10;;;;;;5071349;28;20036;-81
2022/07/21 09:51:24;;;;;;;5.68;4.28;;;24.90;55.20;;;;;;5070590;28;20483;-80
2022/07/21 09:53:56;;;;;;;5.05;4.13;;;24.90;55.20;;;;;;5067299;28;20029;-81
2022/07/21 09:56:24;;;;;;;5.05;3.83;;;24.90;55.20;;;;;;5070224;28;20139;-81
2022/07/21 09:58:53;;;;;;;5.53;3.83;;;24.90;55.20;;;;;;5071732;28;20369;-80
2022/07/21 10:01:20;;;;;;;5.70;3.88;;;24.90;55.20;;;;;;5071352;28;20096;-82
2022/07/21 10:03:48;;;;;;;4.93;3.45;;;24.90;55.30;;;;;;5051706;28;20561;-80
2022/07/21 10:06:16;;;;;;;4.95;3.72;;;24.90;55.30;;;;;;5076324;28;20392;-81
2022/07/21 10:08:42;;;;;;;4.72;3.38;;;24.80;55.30;;;;;;5072493;28;20033;-80
2022/07/21 10:11:09;;;;;;;4.07;2.80;;;24.80;55.30;;;;;;5071799;28;20101;-82
2022/07/21 10:13:36;;;;;;;4.55;3.20;;;24.80;55.30;;;;;;5054624;28;20041;-83
2022/07/21 10:16:03;;;;;;;3.90;2.95;;;24.80;55.30;;;;;;5066930;28;20078;-81
2022/07/21 10:18:33;;;;;;;4.88;3.05;;;24.80;55.40;;;;;;5064655;28;20029;-81
2022/07/21 10:21:08;;;;;;;3.30;2.50;;;24.80;55.40;;;;;;5070124;28;20028;-80
2022/07/21 10:23:42;;;;;;;4.63;3.00;;;24.80;55.50;;;;;;5069661;28;20028;-80
2022/07/21 10:26:10;;;;;;;3.08;2.38;;;24.80;55.60;;;;;;5069780;28;20028;-81
2022/07/21 10:28:37;;;;;;;3.13;2.28;;;24.80;55.60;;;;;;5071023;28;20048;-80
2022/07/21 10:31:18;;;;;;;3.15;2.53;;;24.80;55.60;;;;;;5071591;28;20021;-81
2022/07/21 10:33:44;;;;;;;3.85;2.40;;;24.70;55.70;;;;;;5067515;28;20107;-80
2022/07/21 10:36:33;;;;;;;3.20;2.35;;;24.70;55.60;;;;;;5055472;28;20107;-81
2022/07/21 10:39:13;;;;;;;3.10;2.35;;;24.70;55.70;;;;;;5088684;28;20082;-80
2022/07/21 10:41:40;;;;;;;3.05;2.35;;;24.70;55.70;;;;;;5069328;28;20086;-81
2022/07/21 10:44:26;;;;;;;2.63;2.13;;;24.70;55.70;;;;;;5070963;28;20050;-81
2022/07/21 10:47:13;;;;;;;2.85;2.28;;;24.70;55.90;;;;;;5057339;28;20043;-80
2022/07/21 10:49:56;;;;;;;3.17;2.33;;;24.70;55.90;;;;;;5067628;28;20033;-80
2022/07/21 10:52:45;;;;;;;2.67;2.15;;;24.70;56.00;;;;;;5072027;28;20028;-80
2022/07/21 10:55:14;;;;;;;2.80;2.28;;;24.60;56.00;;;;;;5064662;28;20036;-82
2022/07/21 10:57:42;;;;;;;2.80;2.20;;;24.60;55.90;;;;;;5071450;28;20097;-82
2022/07/21 11:00:18;;;;;;;3.05;2.03;;;24.60;56.00;;;;;;5072247;28;20043;-81
2022/07/21 11:02:46;;;;;;;2.53;1.83;;;24.60;56.10;;;;;;5071583;28;21236;-79
2022/07/21 11:05:12;;;;;;;2.28;2.00;;;24.60;56.00;;;;;;5071043;28;20465;-79
2022/07/21 11:08:13;;;;;;;3.05;2.30;;;24.60;56.00;;;;;;5070395;28;20025;-78
2022/07/21 11:10:51;;;;;;;2.42;1.90;;;24.60;56.30;;;;;;5068301;28;20036;-78
2022/07/21 11:13:19;;;;;;;2.42;2.00;;;24.60;56.20;;;;;;5065826;28;20040;-77
2022/07/21 11:15:58;;;;;;;2.65;1.90;;;24.60;56.20;;;;;;5063409;28;20445;-80
2022/07/21 11:18:27;;;;;;;2.80;1.98;;;24.60;56.30;;;;;;5069462;28;20130;-78
2022/07/21 11:21:07;;;;;;;3.13;1.90;;;24.60;56.30;;;;;;5072382;28;20024;-80
2022/07/21 11:23:41;;;;;;;2.80;1.80;;;24.60;56.40;;;;;;5082351;28;20366;-78
2022/07/21 11:26:08;;;;;;;2.30;1.90;;;24.60;56.40;;;;;;5070797;28;20047;-78
2022/07/21 11:28:34;;;;;;;2.38;1.80;;;24.60;57.00;;;;;;5054747;28;20074;-78
2022/07/21 11:31:15;;;;;;;2.65;1.80;;;24.50;56.30;;;;;;5070735;28;20029;-79
2022/07/21 11:33:44;;;;;;;2.08;1.73;;;24.50;56.50;;;;;;5066368;28;20033;-78
2022/07/21 11:36:10;;;;;;;2.05;1.77;;;24.50;56.40;;;;;;5070588;28;20025;-80
2022/07/21 11:38:36;;;;;;;2.58;1.92;;;24.50;56.50;;;;;;5069530;28;20027;-78
2022/07/21 11:41:18;;;;;;;2.75;1.80;;;24.50;56.50;;;;;;5054388;28;20476;-81
2022/07/21 11:43:46;;;;;;;2.55;1.77;;;24.50;56.70;;;;;;5065701;28;20075;-78
2022/07/21 11:46:12;;;;;;;2.28;1.73;;;24.50;56.50;;;;;;5062624;28;20094;-78
2022/07/21 11:48:38;;;;;;;2.03;1.60;;;24.50;56.60;;;;;;5070009;28;20810;-79
2022/07/21 11:51:04;;;;;;;2.58;1.83;;;24.50;56.60;;;;;;5069603;28;20036;-79
2022/07/21 11:53:31;;;;;;;2.35;1.90;;;24.40;56.60;;;;;;5070138;28;20036;-79
2022/07/21 11:55:57;;;;;;;2.35;1.65;;;24.50;56.70;;;;;;5070648;28;20052;-79
2022/07/21 11:58:23;;;;;;;2.65;1.90;;;24.50;56.70;;;;;;5053987;28;20071;-79
2022/07/21 12:01:02;;;;;;;1.85;1.58;;;24.50;56.70;;;;;;5070466;28;20080;-79
2022/07/21 12:03:28;;;;;;;1.83;1.60;;;24.40;56.70;;;;;;5070807;28;20978;-79
2022/07/21 12:05:54;;;;;;;2.17;1.70;;;24.50;56.70;;;;;;5062576;28;20116;-81
2022/07/21 12:08:24;;;;;;;3.20;2.03;;;24.40;56.70;;;;;;5070655;28;20109;-79
2022/07/21 12:10:50;;;;;;;2.58;2.00;;;24.40;56.70;;;;;;5069559;28;20115;-78
2022/07/21 12:13:15;;;;;;;2.60;2.00;;;24.40;56.80;;;;;;5061032;28;20116;-80
2022/07/21 12:15:41;;;;;;;3.40;2.05;;;24.40;56.80;;;;;;5070778;28;20036;-79
2022/07/21 12:18:16;;;;;;;2.70;2.10;;;24.40;56.80;;;;;;5071340;28;20111;-80
2022/07/21 12:20:43;;;;;;;2.20;1.70;;;24.40;56.90;;;;;;5070673;28;20037;-79
2022/07/21 12:23:27;;;;;;;2.63;1.98;;;24.40;56.90;;;;;;5069981;28;20037;-80
2022/07/21 12:25:55;;;;;;;2.85;1.98;;;24.40;57.00;;;;;;5068890;28;20059;-78
2022/07/21 12:28:20;;;;;;;3.08;2.22;;;24.40;56.90;;;;;;5054127;28;20032;-79
2022/07/21 12:30:52;;;;;;;2.53;2.10;;;24.40;56.90;;;;;;5053604;28;20039;-79
2022/07/21 12:33:28;;;;;;;2.17;1.88;;;24.40;57.00;;;;;;5069766;28;20115;-79
2022/07/21 12:36:06;;;;;;;2.28;2.03;;;24.40;57.10;;;;;;5070466;28;20029;-79
2022/07/21 12:38:38;;;;;;;2.97;2.03;;;24.40;57.10;;;;;;5062802;28;20056;-80
2022/07/21 12:41:04;;;;;;;2.72;2.00;;;24.40;57.10;;;;;;5069891;28;20522;-79
2022/07/21 12:43:30;;;;;;;2.63;2.13;;;24.40;57.10;;;;;;5069814;28;20033;-80
2022/07/21 12:46:12;;;;;;;2.38;1.85;;;24.40;57.10;;;;;;5070306;28;20025;-79
2022/07/21 12:48:38;;;;;;;2.85;2.13;;;24.40;57.20;;;;;;5062962;28;20453;-79
2022/07/21 12:51:06;;;;;;;2.80;2.10;;;24.40;57.10;;;;;;5070024;28;20032;-79
2022/07/21 12:53:46;;;;;;;2.70;1.83;;;24.40;57.20;;;;;;5079057;28;20033;-79